createdAt,value
2023-11-15T00:00:05.558Z,937.30
2023-11-15T00:00:16.582Z,937.33
2023-11-15T00:00:27.568Z,937.34
2023-11-15T00:00:38.568Z,937.35
2023-11-15T00:00:49.573Z,937.34
2023-11-15T00:01:00.578Z,937.32
2023-11-15T00:01:11.592Z,937.34
2023-11-15T00:01:22.581Z,937.36
2023-11-15T00:01:33.573Z,937.35
2023-11-15T00:01:44.571Z,937.34
2023-11-15T00:01:55.618Z,937.35
2023-11-15T00:02:07.577Z,937.32
2023-11-15T00:02:19.615Z,937.32
2023-11-15T00:02:33.443Z,937.34
2023-11-15T00:02:42.624Z,937.36
2023-11-15T00:02:54.646Z,937.35
2023-11-15T00:03:05.692Z,937.37
2023-11-15T00:03:17.735Z,937.35
2023-11-15T00:03:28.650Z,937.35
2023-11-15T00:03:39.689Z,937.38
2023-11-15T00:03:51.685Z,937.38
2023-11-15T00:04:03.650Z,937.39
2023-11-15T00:04:14.643Z,937.39
2023-11-15T00:04:25.620Z,937.40
2023-11-15T00:04:36.617Z,937.39
2023-11-15T00:04:47.615Z,937.36
2023-11-15T00:04:58.656Z,937.38
2023-11-15T00:05:09.629Z,937.41
2023-11-15T00:05:21.679Z,937.43
2023-11-15T00:05:32.669Z,937.41
2023-11-15T00:05:43.744Z,937.37
2023-11-15T00:05:54.732Z,937.38
2023-11-15T00:06:05.658Z,937.42
2023-11-15T00:06:17.782Z,937.41
2023-11-15T00:06:28.631Z,937.44
2023-11-15T00:06:39.645Z,937.44
2023-11-15T00:06:50.616Z,937.43
2023-11-15T00:07:01.697Z,937.42
2023-11-15T00:07:13.592Z,937.37
2023-11-15T00:07:24.597Z,937.44
2023-11-15T00:07:36.599Z,937.45
2023-11-15T00:07:48.583Z,937.47
2023-11-15T00:07:59.605Z,937.48
2023-11-15T00:08:11.603Z,937.45
2023-11-15T00:08:22.616Z,937.44
2023-11-15T00:08:34.638Z,937.45
2023-11-15T00:08:45.643Z,937.46
2023-11-15T00:08:56.584Z,937.47
2023-11-15T00:09:07.604Z,937.47
2023-11-15T00:09:19.589Z,937.49
2023-11-15T00:09:31.574Z,937.50
2023-11-15T00:09:42.568Z,937.49
2023-11-15T00:09:53.577Z,937.50
2023-11-15T00:10:04.578Z,937.50
2023-11-15T00:10:15.570Z,937.51
2023-11-15T00:10:26.601Z,937.49
2023-11-15T00:10:38.593Z,937.51
2023-11-15T00:10:49.598Z,937.53
2023-11-15T00:11:00.598Z,937.46
2023-11-15T00:11:11.593Z,937.47
2023-11-15T00:11:22.610Z,937.50
2023-11-15T00:11:33.638Z,937.48
2023-11-15T00:11:45.669Z,937.49
2023-11-15T00:11:57.619Z,937.50
2023-11-15T00:12:08.617Z,937.51
2023-11-15T00:12:20.593Z,937.50
2023-11-15T00:12:31.607Z,937.48
2023-11-15T00:12:42.601Z,937.53
2023-11-15T00:12:53.595Z,937.51
2023-11-15T00:13:04.601Z,937.49
2023-11-15T00:13:16.585Z,937.51
2023-11-15T00:13:28.587Z,937.49
2023-11-15T00:13:39.581Z,937.53
2023-11-15T00:13:50.582Z,937.51
2023-11-15T00:14:02.587Z,937.53
2023-11-15T00:14:13.592Z,937.53
2023-11-15T00:14:25.640Z,937.50
2023-11-15T00:14:37.657Z,937.49
2023-11-15T00:14:48.605Z,937.53
2023-11-15T00:15:00.598Z,937.54
2023-11-15T00:15:11.603Z,937.57
2023-11-15T00:15:22.600Z,937.59
2023-11-15T00:15:34.702Z,937.60
2023-11-15T00:15:45.650Z,937.58
2023-11-15T00:15:57.639Z,937.58
2023-11-15T00:16:09.633Z,937.59
2023-11-15T00:16:21.665Z,937.61
2023-11-15T00:16:32.580Z,937.62
2023-11-15T00:16:43.611Z,937.62
2023-11-15T00:16:55.589Z,937.63
2023-11-15T00:17:06.692Z,937.62
2023-11-15T00:17:17.620Z,937.61
2023-11-15T00:17:29.620Z,937.63
2023-11-15T00:17:41.620Z,937.55
2023-11-15T00:17:53.661Z,937.52
2023-11-15T00:18:04.646Z,937.58
2023-11-15T00:18:15.677Z,937.61
2023-11-15T00:18:27.605Z,937.61
2023-11-15T00:18:38.617Z,937.61
2023-11-15T00:18:50.625Z,937.62
2023-11-15T00:19:02.611Z,937.61
2023-11-15T00:19:14.643Z,937.61
2023-11-15T00:19:25.574Z,937.58
2023-11-15T00:19:36.581Z,937.61
2023-11-15T00:19:47.585Z,937.59
2023-11-15T00:19:58.597Z,937.63
2023-11-15T00:20:10.585Z,937.64
2023-11-15T00:20:21.640Z,937.59
2023-11-15T00:20:33.655Z,937.65
2023-11-15T00:20:45.653Z,937.67
2023-11-15T00:20:57.656Z,937.63
2023-11-15T00:21:09.612Z,937.63
2023-11-15T00:21:21.584Z,937.64
2023-11-15T00:21:32.590Z,937.65
2023-11-15T00:21:44.611Z,937.68
2023-11-15T00:21:56.584Z,937.69
2023-11-15T00:22:07.577Z,937.64
2023-11-15T00:22:18.613Z,937.69
2023-11-15T00:22:30.610Z,937.62
2023-11-15T00:22:42.622Z,937.64
2023-11-15T00:22:54.578Z,937.64
2023-11-15T00:23:05.598Z,937.67
2023-11-15T00:23:16.659Z,937.70
2023-11-15T00:23:27.649Z,937.71
2023-11-15T00:23:38.627Z,937.73
2023-11-15T00:23:50.646Z,937.73
2023-11-15T00:24:02.615Z,937.74
2023-11-15T00:24:14.575Z,937.73
2023-11-15T00:24:25.594Z,937.76
2023-11-15T00:24:37.598Z,937.73
2023-11-15T00:24:49.602Z,937.73
2023-11-15T00:25:00.580Z,937.73
2023-11-15T00:25:11.602Z,937.71
2023-11-15T00:25:22.599Z,937.74
2023-11-15T00:25:34.597Z,937.76
2023-11-15T00:25:45.598Z,937.76
2023-11-15T00:25:56.594Z,937.72
2023-11-15T00:26:07.604Z,937.75
2023-11-15T00:26:18.646Z,937.75
2023-11-15T00:26:29.575Z,937.69
2023-11-15T00:26:40.605Z,937.62
2023-11-15T00:26:51.647Z,937.68
2023-11-15T00:27:02.577Z,937.72
2023-11-15T00:27:13.572Z,937.78
2023-11-15T00:27:24.589Z,937.82
2023-11-15T00:27:35.591Z,937.82
2023-11-15T00:27:47.588Z,937.82
2023-11-15T00:27:58.591Z,937.83
2023-11-15T00:28:09.689Z,937.82
2023-11-15T00:28:20.584Z,937.84
2023-11-15T00:28:31.607Z,937.80
2023-11-15T00:28:43.589Z,937.82
2023-11-15T00:28:54.603Z,937.83
2023-11-15T00:29:05.605Z,937.81
2023-11-15T00:29:16.633Z,937.81
2023-11-15T00:29:28.664Z,937.86
2023-11-15T00:29:39.702Z,937.85
2023-11-15T00:29:50.635Z,937.86
2023-11-15T00:30:02.608Z,937.88
2023-11-15T00:30:13.697Z,937.87
2023-11-15T00:30:24.600Z,937.90
2023-11-15T00:30:35.632Z,937.89
2023-11-15T00:30:47.606Z,937.90
2023-11-15T00:30:59.587Z,937.90
2023-11-15T00:31:10.609Z,937.89
2023-11-15T00:31:22.598Z,937.87
2023-11-15T00:31:33.605Z,937.91
2023-11-15T00:31:44.618Z,937.92
2023-11-15T00:31:55.612Z,937.92
2023-11-15T00:32:07.617Z,937.89
2023-11-15T00:32:19.600Z,937.91
2023-11-15T00:32:31.624Z,937.93
2023-11-15T00:32:42.683Z,937.95
2023-11-15T00:32:54.649Z,937.96
2023-11-15T00:33:05.707Z,937.96
2023-11-15T00:33:17.684Z,937.93
2023-11-15T00:33:28.577Z,937.97
2023-11-15T00:33:39.643Z,937.98
2023-11-15T00:33:50.601Z,937.86
2023-11-15T00:34:01.630Z,937.88
2023-11-15T00:34:13.629Z,937.95
2023-11-15T00:34:25.654Z,937.95
2023-11-15T00:34:37.638Z,937.96
2023-11-15T00:34:49.623Z,937.96
2023-11-15T00:35:01.601Z,937.95
2023-11-15T00:35:13.737Z,937.97
2023-11-15T00:35:25.630Z,937.95
2023-11-15T00:35:37.649Z,937.95
2023-11-15T00:35:48.719Z,937.96
2023-11-15T00:35:59.696Z,937.95
2023-11-15T00:36:11.664Z,937.96
2023-11-15T00:36:22.652Z,937.96
2023-11-15T00:36:33.592Z,937.95
2023-11-15T00:36:45.610Z,937.96
2023-11-15T00:37:00.337Z,937.98
2023-11-15T00:37:08.644Z,938.00
2023-11-15T00:37:20.597Z,937.99
2023-11-15T00:37:31.598Z,937.98
2023-11-15T00:37:42.599Z,938.00
2023-11-15T00:37:53.678Z,938.00
2023-11-15T00:38:04.602Z,938.02
2023-11-15T00:38:16.628Z,938.02
2023-11-15T00:38:28.962Z,938.01
2023-11-15T00:38:40.663Z,938.01
2023-11-15T00:38:52.659Z,938.02
2023-11-15T00:39:04.641Z,938.02
2023-11-15T00:39:16.616Z,938.04
2023-11-15T00:39:28.612Z,938.02
2023-11-15T00:39:40.605Z,938.04
2023-11-15T00:39:51.608Z,938.03
2023-11-15T00:40:02.611Z,938.01
2023-11-15T00:40:14.609Z,938.02
2023-11-15T00:40:26.580Z,938.03
2023-11-15T00:40:37.573Z,938.04
2023-11-15T00:40:48.565Z,938.03
2023-11-15T00:40:59.579Z,938.03
2023-11-15T00:41:10.562Z,938.04
2023-11-15T00:41:21.588Z,938.03
2023-11-15T00:41:33.628Z,938.03
2023-11-15T00:41:45.638Z,938.01
2023-11-15T00:41:57.646Z,937.97
2023-11-15T00:42:09.587Z,937.99
2023-11-15T00:42:20.585Z,938.00
2023-11-15T00:42:31.603Z,938.01
2023-11-15T00:42:43.584Z,938.02
2023-11-15T00:42:54.576Z,938.05
2023-11-15T00:43:05.581Z,938.06
2023-11-15T00:43:16.596Z,938.09
2023-11-15T00:43:28.601Z,938.01
2023-11-15T00:43:39.599Z,938.02
2023-11-15T00:43:50.598Z,938.05
2023-11-15T00:44:02.596Z,938.04
2023-11-15T00:44:13.585Z,938.07
2023-11-15T00:44:24.629Z,938.07
2023-11-15T00:44:36.626Z,938.10
2023-11-15T00:44:48.626Z,938.10
2023-11-15T00:44:59.620Z,938.11
2023-11-15T00:45:10.644Z,938.11
2023-11-15T00:45:22.611Z,938.10
2023-11-15T00:45:33.696Z,938.11
2023-11-15T00:45:44.640Z,938.13
2023-11-15T00:45:56.677Z,938.14
2023-11-15T00:46:07.627Z,938.11
2023-11-15T00:46:19.678Z,938.14
2023-11-15T00:46:30.592Z,938.15
2023-11-15T00:46:41.605Z,938.15
2023-11-15T00:46:52.609Z,938.15
2023-11-15T00:47:04.619Z,938.16
2023-11-15T00:47:15.605Z,938.13
2023-11-15T00:47:26.693Z,938.15
2023-11-15T00:47:38.663Z,938.18
2023-11-15T00:47:49.658Z,938.16
2023-11-15T00:48:01.637Z,938.17
2023-11-15T00:48:12.648Z,938.09
2023-11-15T00:48:23.688Z,938.14
2023-11-15T00:48:34.682Z,938.18
2023-11-15T00:48:46.664Z,938.17
2023-11-15T00:48:58.623Z,938.15
2023-11-15T00:49:10.621Z,938.13
2023-11-15T00:49:22.611Z,938.14
2023-11-15T00:49:34.581Z,938.17
2023-11-15T00:49:45.600Z,938.17
2023-11-15T00:49:56.606Z,938.18
2023-11-15T00:50:08.599Z,938.18
2023-11-15T00:50:19.680Z,938.19
2023-11-15T00:50:30.633Z,938.21
2023-11-15T00:50:42.688Z,938.20
2023-11-15T00:50:54.629Z,938.16
2023-11-15T00:51:06.593Z,938.18
2023-11-15T00:51:17.594Z,938.17
2023-11-15T00:51:28.617Z,938.12
2023-11-15T00:51:40.612Z,938.20
2023-11-15T00:51:52.640Z,938.17
2023-11-15T00:52:04.609Z,938.21
2023-11-15T00:52:15.622Z,938.20
2023-11-15T00:52:27.611Z,938.19
2023-11-15T00:52:38.689Z,938.21
2023-11-15T00:52:50.605Z,938.20
2023-11-15T00:53:02.591Z,938.20
2023-11-15T00:53:14.592Z,938.21
2023-11-15T00:53:25.625Z,938.21
2023-11-15T00:53:37.606Z,938.24
2023-11-15T00:53:49.595Z,938.25
2023-11-15T00:54:01.590Z,938.25
2023-11-15T00:54:12.593Z,938.27
2023-11-15T00:54:24.591Z,938.27
2023-11-15T00:54:36.603Z,938.27
2023-11-15T00:54:48.607Z,938.25
2023-11-15T00:54:59.616Z,938.25
2023-11-15T00:55:11.639Z,938.24
2023-11-15T00:55:23.613Z,938.25
2023-11-15T00:55:35.618Z,938.23
2023-11-15T00:55:46.621Z,938.21
2023-11-15T00:55:58.623Z,938.20
2023-11-15T00:56:10.587Z,938.21
2023-11-15T00:56:21.676Z,938.24
2023-11-15T00:56:32.657Z,938.26
2023-11-15T00:56:44.645Z,938.28
2023-11-15T00:56:56.658Z,938.29
2023-11-15T00:57:08.637Z,938.29
2023-11-15T00:57:20.609Z,938.32
2023-11-15T00:57:32.608Z,938.34
2023-11-15T00:57:44.615Z,938.32
2023-11-15T00:57:56.601Z,938.27
2023-11-15T00:58:08.578Z,938.31
2023-11-15T00:58:19.587Z,938.35
2023-11-15T00:58:30.597Z,938.29
2023-11-15T00:58:42.610Z,938.35
2023-11-15T00:58:54.597Z,938.36
2023-11-15T00:59:05.615Z,938.35
2023-11-15T00:59:16.600Z,938.10
2023-11-15T00:59:28.643Z,938.22
2023-11-15T00:59:39.643Z,938.32
2023-11-15T00:59:50.587Z,938.35
2023-11-15T01:00:01.629Z,938.29
2023-11-15T01:00:13.585Z,937.89
2023-11-15T01:00:24.597Z,938.28
2023-11-15T01:00:35.615Z,938.20
2023-11-15T01:00:47.595Z,938.21
2023-11-15T01:00:58.623Z,938.31
2023-11-15T01:01:10.599Z,938.35
2023-11-15T01:01:21.601Z,938.36
2023-11-15T01:01:32.611Z,938.37
2023-11-15T01:01:44.677Z,938.40
2023-11-15T01:01:55.639Z,938.34
2023-11-15T01:02:07.651Z,938.33
2023-11-15T01:02:18.664Z,938.38
2023-11-15T01:02:29.772Z,938.36
2023-11-15T01:02:41.693Z,938.40
2023-11-15T01:02:53.863Z,938.45
2023-11-15T01:03:05.748Z,938.47
2023-11-15T01:03:16.966Z,938.48
2023-11-15T01:03:27.974Z,938.46
2023-11-15T01:03:38.738Z,938.40
2023-11-15T01:03:49.777Z,938.40
2023-11-15T01:04:01.788Z,938.40
2023-11-15T01:04:12.662Z,938.54
2023-11-15T01:04:24.736Z,938.46
2023-11-15T01:04:35.568Z,938.56
2023-11-15T01:04:46.571Z,938.53
2023-11-15T01:04:57.574Z,938.16
2023-11-15T01:05:08.584Z,938.45
2023-11-15T01:05:20.596Z,938.34
2023-11-15T01:05:31.697Z,938.45
2023-11-15T01:05:43.631Z,938.40
2023-11-15T01:05:55.607Z,938.34
2023-11-15T01:06:06.601Z,938.43
2023-11-15T01:06:17.608Z,938.45
2023-11-15T01:06:29.596Z,938.52
2023-11-15T01:06:40.600Z,938.37
2023-11-15T01:06:52.604Z,938.51
2023-11-15T01:07:04.593Z,938.46
2023-11-15T01:07:15.590Z,938.50
2023-11-15T01:07:26.696Z,938.49
2023-11-15T01:07:37.617Z,938.48
2023-11-15T01:07:48.608Z,938.48
2023-11-15T01:08:00.612Z,938.53
2023-11-15T01:08:11.623Z,938.53
2023-11-15T01:08:23.616Z,938.60
2023-11-15T01:08:34.648Z,938.56
2023-11-15T01:08:46.655Z,938.58
2023-11-15T01:08:58.622Z,938.54
2023-11-15T01:09:10.591Z,938.49
2023-11-15T01:09:22.587Z,938.54
2023-11-15T01:09:33.620Z,938.57
2023-11-15T01:09:45.591Z,938.49
2023-11-15T01:09:57.607Z,938.53
2023-11-15T01:10:09.596Z,938.62
2023-11-15T01:10:20.667Z,938.59
2023-11-15T01:10:31.604Z,938.68
2023-11-15T01:10:42.614Z,938.48
2023-11-15T01:10:53.604Z,938.64
2023-11-15T01:11:04.621Z,938.63
2023-11-15T01:11:16.584Z,938.53
2023-11-15T01:11:27.639Z,938.59
2023-11-15T01:11:38.605Z,938.60
2023-11-15T01:11:49.675Z,938.61
2023-11-15T01:12:00.582Z,938.66
2023-11-15T01:12:11.603Z,938.66
2023-11-15T01:12:23.581Z,938.69
2023-11-15T01:12:34.574Z,938.71
2023-11-15T01:12:45.581Z,938.75
2023-11-15T01:12:56.603Z,938.72
2023-11-15T01:13:07.602Z,938.78
2023-11-15T01:13:18.591Z,938.64
2023-11-15T01:13:30.589Z,938.69
2023-11-15T01:13:41.603Z,938.73
2023-11-15T01:13:52.589Z,938.76
2023-11-15T01:14:03.598Z,938.66
2023-11-15T01:14:14.615Z,938.26
2023-11-15T01:14:26.621Z,938.59
2023-11-15T01:14:38.638Z,938.64
2023-11-15T01:14:50.726Z,938.64
2023-11-15T01:15:02.630Z,938.60
2023-11-15T01:15:14.696Z,938.66
2023-11-15T01:15:26.640Z,938.79
2023-11-15T01:15:38.595Z,938.68
2023-11-15T01:15:49.635Z,938.64
2023-11-15T01:16:01.650Z,938.70
2023-11-15T01:16:12.585Z,938.71
2023-11-15T01:16:23.619Z,938.88
2023-11-15T01:16:34.600Z,938.79
2023-11-15T01:16:45.594Z,938.80
2023-11-15T01:16:56.623Z,938.82
2023-11-15T01:17:08.588Z,938.83
2023-11-15T01:17:19.617Z,938.87
2023-11-15T01:17:31.671Z,938.80
2023-11-15T01:17:42.868Z,938.82
2023-11-15T01:17:54.838Z,938.82
2023-11-15T01:18:05.644Z,938.79
2023-11-15T01:18:17.641Z,938.66
2023-11-15T01:18:29.614Z,938.85
2023-11-15T01:18:41.589Z,938.79
2023-11-15T01:18:52.598Z,938.88
2023-11-15T01:19:03.609Z,938.88
2023-11-15T01:19:15.606Z,938.89
2023-11-15T01:19:26.618Z,938.90
2023-11-15T01:19:37.620Z,938.87
2023-11-15T01:19:49.613Z,938.89
2023-11-15T01:20:00.618Z,938.88
2023-11-15T01:20:11.584Z,938.89
2023-11-15T01:20:22.609Z,938.89
2023-11-15T01:20:33.641Z,938.84
2023-11-15T01:20:45.633Z,938.94
2023-11-15T01:20:57.606Z,938.86
2023-11-15T01:21:08.605Z,938.89
2023-11-15T01:21:20.584Z,938.86
2023-11-15T01:21:31.590Z,938.97
2023-11-15T01:21:42.587Z,938.97
2023-11-15T01:21:53.605Z,938.83
2023-11-15T01:22:04.606Z,938.77
2023-11-15T01:22:16.590Z,938.90
2023-11-15T01:22:27.588Z,938.92
2023-11-15T01:22:38.583Z,938.93
2023-11-15T01:22:49.609Z,938.88
2023-11-15T01:23:00.603Z,938.93
2023-11-15T01:23:11.602Z,938.98
2023-11-15T01:23:22.652Z,938.96
2023-11-15T01:23:34.698Z,938.91
2023-11-15T01:23:46.631Z,938.97
2023-11-15T01:23:58.596Z,938.95
2023-11-15T01:24:09.585Z,938.95
2023-11-15T01:24:20.581Z,938.92
2023-11-15T01:24:31.606Z,938.93
2023-11-15T01:24:43.597Z,938.89
2023-11-15T01:24:54.597Z,938.93
2023-11-15T01:25:05.592Z,938.90
2023-11-15T01:25:16.594Z,938.99
2023-11-15T01:25:27.601Z,939.02
2023-11-15T01:25:39.604Z,939.01
2023-11-15T01:25:50.606Z,938.96
2023-11-15T01:26:02.584Z,938.91
2023-11-15T01:26:13.588Z,938.91
2023-11-15T01:26:24.655Z,939.00
2023-11-15T01:26:36.627Z,938.92
2023-11-15T01:26:48.630Z,938.93
2023-11-15T01:27:00.601Z,939.00
2023-11-15T01:27:11.608Z,938.98
2023-11-15T01:27:23.595Z,938.93
2023-11-15T01:27:34.596Z,938.92
2023-11-15T01:27:45.590Z,938.91
2023-11-15T01:27:56.611Z,938.91
2023-11-15T01:28:08.588Z,939.02
2023-11-15T01:28:19.625Z,939.02
2023-11-15T01:28:31.596Z,939.02
2023-11-15T01:28:42.640Z,939.09
2023-11-15T01:28:54.595Z,939.07
2023-11-15T01:29:05.607Z,939.00
2023-11-15T01:29:17.606Z,939.03
2023-11-15T01:29:28.623Z,939.02
2023-11-15T01:29:40.617Z,939.05
2023-11-15T01:29:52.601Z,939.05
2023-11-15T01:30:03.592Z,939.06
2023-11-15T01:30:14.612Z,939.01
2023-11-15T01:30:26.609Z,939.06
2023-11-15T01:30:37.592Z,939.08
2023-11-15T01:30:49.586Z,939.14
2023-11-15T01:31:00.597Z,939.11
2023-11-15T01:31:11.592Z,939.11
2023-11-15T01:31:23.580Z,939.17
2023-11-15T01:31:34.598Z,939.09
2023-11-15T01:31:45.608Z,939.06
2023-11-15T01:31:57.614Z,939.02
2023-11-15T01:32:09.605Z,939.12
2023-11-15T01:32:21.629Z,939.16
2023-11-15T01:32:32.716Z,939.08
2023-11-15T01:32:44.699Z,939.03
2023-11-15T01:32:56.750Z,939.08
2023-11-15T01:33:07.654Z,939.08
2023-11-15T01:33:18.713Z,939.12
2023-11-15T01:33:29.598Z,939.10
2023-11-15T01:33:40.746Z,939.06
2023-11-15T01:33:52.653Z,939.09
2023-11-15T01:34:03.628Z,939.14
2023-11-15T01:34:15.618Z,939.07
2023-11-15T01:34:27.606Z,939.13
2023-11-15T01:34:38.715Z,939.08
2023-11-15T01:34:50.595Z,939.06
2023-11-15T01:35:01.602Z,939.08
2023-11-15T01:35:13.607Z,939.10
2023-11-15T01:35:24.703Z,939.11
2023-11-15T01:35:36.633Z,939.14
2023-11-15T01:35:48.706Z,939.19
2023-11-15T01:36:00.603Z,939.20
2023-11-15T01:36:11.600Z,939.21
2023-11-15T01:36:23.587Z,939.28
2023-11-15T01:36:34.575Z,939.26
2023-11-15T01:36:45.567Z,939.18
2023-11-15T01:36:56.593Z,939.10
2023-11-15T01:37:07.638Z,939.10
2023-11-15T01:37:19.612Z,939.13
2023-11-15T01:37:31.604Z,939.14
2023-11-15T01:37:42.610Z,939.16
2023-11-15T01:37:54.588Z,939.13
2023-11-15T01:38:05.582Z,939.18
2023-11-15T01:38:16.600Z,939.20
2023-11-15T01:38:27.571Z,939.22
2023-11-15T01:38:38.646Z,939.21
2023-11-15T01:38:49.619Z,939.18
2023-11-15T01:39:00.620Z,939.16
2023-11-15T01:39:11.604Z,939.17
2023-11-15T01:39:23.588Z,939.22
2023-11-15T01:39:34.618Z,939.28
2023-11-15T01:39:46.604Z,939.32
2023-11-15T01:39:57.601Z,939.20
2023-11-15T01:40:09.607Z,939.17
2023-11-15T01:40:20.613Z,939.19
2023-11-15T01:40:32.589Z,939.18
2023-11-15T01:40:44.575Z,939.25
2023-11-15T01:40:55.590Z,939.23
2023-11-15T01:41:06.597Z,939.24
2023-11-15T01:41:17.589Z,939.23
2023-11-15T01:41:28.635Z,939.22
2023-11-15T01:41:39.669Z,939.25
2023-11-15T01:41:51.587Z,939.27
2023-11-15T01:42:02.586Z,939.16
2023-11-15T01:42:14.609Z,939.16
2023-11-15T01:42:25.620Z,939.17
2023-11-15T01:42:37.606Z,939.25
2023-11-15T01:42:49.669Z,939.28
2023-11-15T01:43:00.580Z,939.30
2023-11-15T01:43:12.587Z,939.20
2023-11-15T01:43:23.593Z,939.23
2023-11-15T01:43:35.593Z,939.23
2023-11-15T01:43:46.592Z,939.20
2023-11-15T01:43:57.609Z,939.21
2023-11-15T01:44:09.616Z,939.26
2023-11-15T01:44:21.735Z,939.25
2023-11-15T01:44:33.602Z,939.26
2023-11-15T01:44:44.623Z,939.12
2023-11-15T01:44:56.690Z,939.20
2023-11-15T01:45:08.635Z,939.21
2023-11-15T01:45:20.607Z,939.27
2023-11-15T01:45:31.613Z,939.22
2023-11-15T01:45:43.594Z,939.23
2023-11-15T01:45:54.641Z,939.23
2023-11-15T01:46:06.700Z,939.28
2023-11-15T01:46:18.650Z,939.33
2023-11-15T01:46:30.670Z,939.27
2023-11-15T01:46:41.629Z,939.27
2023-11-15T01:46:52.621Z,939.24
2023-11-15T01:47:03.563Z,939.24
2023-11-15T01:47:14.574Z,939.27
2023-11-15T01:47:25.740Z,939.27
2023-11-15T01:47:36.598Z,939.24
2023-11-15T01:47:47.674Z,939.28
2023-11-15T01:47:58.672Z,939.19
2023-11-15T01:48:10.648Z,939.10
2023-11-15T01:48:21.602Z,939.24
2023-11-15T01:48:33.595Z,939.27
2023-11-15T01:48:44.584Z,939.26
2023-11-15T01:48:55.608Z,939.26
2023-11-15T01:49:07.581Z,939.23
2023-11-15T01:49:19.589Z,939.27
2023-11-15T01:49:30.591Z,939.30
2023-11-15T01:49:41.587Z,939.22
2023-11-15T01:49:52.610Z,939.22
2023-11-15T01:50:04.596Z,939.28
2023-11-15T01:50:15.593Z,939.25
2023-11-15T01:50:26.602Z,939.22
2023-11-15T01:50:37.671Z,939.25
2023-11-15T01:50:49.661Z,939.28
2023-11-15T01:51:01.612Z,939.25
2023-11-15T01:51:13.590Z,939.23
2023-11-15T01:51:24.585Z,939.28
2023-11-15T01:51:36.609Z,939.29
2023-11-15T01:51:48.612Z,939.25
2023-11-15T01:51:59.612Z,939.28
2023-11-15T01:52:11.622Z,939.26
2023-11-15T01:52:23.594Z,939.31
2023-11-15T01:52:34.588Z,939.31
2023-11-15T01:52:46.583Z,939.29
2023-11-15T01:52:57.586Z,939.31
2023-11-15T01:53:08.602Z,939.32
2023-11-15T01:53:20.604Z,939.35
2023-11-15T01:53:31.675Z,939.35
2023-11-15T01:53:43.631Z,939.31
2023-11-15T01:53:54.634Z,939.33
2023-11-15T01:54:06.583Z,939.34
2023-11-15T01:54:17.607Z,939.32
2023-11-15T01:54:28.616Z,939.33
2023-11-15T01:54:40.582Z,939.34
2023-11-15T01:54:52.586Z,939.36
2023-11-15T01:55:03.582Z,939.36
2023-11-15T01:55:14.629Z,939.33
2023-11-15T01:55:26.607Z,939.33
2023-11-15T01:55:38.620Z,939.32
2023-11-15T01:55:50.585Z,939.33
2023-11-15T01:56:01.564Z,939.32
2023-11-15T01:56:12.563Z,939.34
2023-11-15T01:56:23.617Z,939.35
2023-11-15T01:56:35.677Z,939.36
2023-11-15T01:56:47.608Z,939.37
2023-11-15T01:56:58.606Z,939.37
2023-11-15T01:57:09.602Z,939.34
2023-11-15T01:57:21.610Z,939.37
2023-11-15T01:57:33.607Z,939.38
2023-11-15T01:57:44.607Z,939.38
2023-11-15T01:57:56.650Z,939.35
2023-11-15T01:58:07.585Z,939.38
2023-11-15T01:58:18.612Z,939.37
2023-11-15T01:58:30.618Z,939.40
2023-11-15T01:58:42.591Z,939.37
2023-11-15T01:58:53.602Z,939.37
2023-11-15T01:59:04.613Z,939.44
2023-11-15T01:59:15.618Z,939.42
2023-11-15T01:59:27.601Z,939.40
2023-11-15T01:59:38.630Z,939.41
2023-11-15T01:59:50.627Z,939.45
2023-11-15T02:00:02.600Z,939.39
2023-11-15T02:00:13.584Z,939.42
2023-11-15T02:00:25.605Z,939.38
2023-11-15T02:00:37.588Z,939.41
2023-11-15T02:00:48.596Z,939.42
2023-11-15T02:00:59.604Z,939.42
2023-11-15T02:01:10.637Z,939.42
2023-11-15T02:01:22.623Z,939.45
2023-11-15T02:01:34.632Z,939.44
2023-11-15T02:01:46.717Z,939.36
2023-11-15T02:01:58.623Z,939.41
2023-11-15T02:02:10.590Z,939.46
2023-11-15T02:02:21.629Z,939.44
2023-11-15T02:02:32.668Z,939.46
2023-11-15T02:02:43.773Z,939.43
2023-11-15T02:02:54.749Z,939.44
2023-11-15T02:03:05.666Z,939.45
2023-11-15T02:03:17.705Z,939.44
2023-11-15T02:03:29.649Z,939.46
2023-11-15T02:03:40.659Z,939.49
2023-11-15T02:03:51.737Z,939.48
2023-11-15T02:04:03.709Z,939.46
2023-11-15T02:04:15.656Z,939.49
2023-11-15T02:04:26.731Z,939.50
2023-11-15T02:04:37.636Z,939.43
2023-11-15T02:04:49.592Z,939.45
2023-11-15T02:05:00.608Z,939.43
2023-11-15T02:05:11.611Z,939.47
2023-11-15T02:05:23.622Z,939.48
2023-11-15T02:05:34.615Z,939.49
2023-11-15T02:05:45.663Z,939.47
2023-11-15T02:05:57.629Z,939.50
2023-11-15T02:06:09.590Z,939.42
2023-11-15T02:06:20.588Z,939.50
2023-11-15T02:06:31.600Z,939.43
2023-11-15T02:06:42.582Z,939.46
2023-11-15T02:06:53.579Z,939.46
2023-11-15T02:07:04.580Z,939.46
2023-11-15T02:07:16.582Z,939.48
2023-11-15T02:07:27.611Z,939.47
2023-11-15T02:07:38.596Z,939.52
2023-11-15T02:07:50.588Z,939.47
2023-11-15T02:08:01.600Z,939.47
2023-11-15T02:08:12.612Z,939.50
2023-11-15T02:08:24.638Z,939.49
2023-11-15T02:08:36.632Z,939.50
2023-11-15T02:08:48.662Z,939.45
2023-11-15T02:08:59.616Z,939.46
2023-11-15T02:09:10.598Z,939.48
2023-11-15T02:09:22.596Z,939.53
2023-11-15T02:09:33.602Z,939.52
2023-11-15T02:09:45.587Z,939.51
2023-11-15T02:09:56.622Z,939.51
2023-11-15T02:10:07.606Z,939.43
2023-11-15T02:10:18.597Z,939.49
2023-11-15T02:10:29.600Z,939.54
2023-11-15T02:10:40.595Z,939.50
2023-11-15T02:10:51.592Z,939.52
2023-11-15T02:11:02.586Z,939.51
2023-11-15T02:11:13.595Z,939.51
2023-11-15T02:11:24.609Z,939.52
2023-11-15T02:11:36.664Z,939.55
2023-11-15T02:11:47.618Z,939.56
2023-11-15T02:11:59.600Z,939.57
2023-11-15T02:12:11.597Z,939.54
2023-11-15T02:12:22.596Z,939.41
2023-11-15T02:12:33.583Z,939.45
2023-11-15T02:12:44.579Z,939.59
2023-11-15T02:12:55.605Z,939.53
2023-11-15T02:13:07.582Z,939.58
2023-11-15T02:13:19.579Z,939.61
2023-11-15T02:13:31.587Z,939.57
2023-11-15T02:13:42.621Z,939.61
2023-11-15T02:13:54.583Z,939.63
2023-11-15T02:14:05.582Z,939.62
2023-11-15T02:14:16.604Z,939.68
2023-11-15T02:14:28.645Z,939.64
2023-11-15T02:14:40.640Z,939.61
2023-11-15T02:14:52.662Z,939.48
2023-11-15T02:15:04.642Z,939.56
2023-11-15T02:15:16.636Z,939.59
2023-11-15T02:15:28.592Z,939.59
2023-11-15T02:15:40.613Z,939.64
2023-11-15T02:15:52.598Z,939.64
2023-11-15T02:16:04.613Z,939.64
2023-11-15T02:16:16.630Z,939.65
2023-11-15T02:16:28.665Z,939.65
2023-11-15T02:16:39.683Z,939.70
2023-11-15T02:16:51.612Z,939.65
2023-11-15T02:17:03.602Z,939.64
2023-11-15T02:17:14.604Z,939.60
2023-11-15T02:17:26.657Z,939.49
2023-11-15T02:17:37.692Z,939.56
2023-11-15T02:17:49.749Z,939.59
2023-11-15T02:18:01.692Z,939.66
2023-11-15T02:18:13.673Z,939.64
2023-11-15T02:18:24.725Z,939.77
2023-11-15T02:18:36.685Z,939.72
2023-11-15T02:18:48.592Z,939.50
2023-11-15T02:18:59.607Z,939.60
2023-11-15T02:19:10.611Z,939.57
2023-11-15T02:19:21.607Z,939.65
2023-11-15T02:19:33.584Z,939.66
2023-11-15T02:19:44.587Z,939.63
2023-11-15T02:19:56.650Z,939.64
2023-11-15T02:20:07.609Z,939.52
2023-11-15T02:20:19.662Z,939.65
2023-11-15T02:20:30.617Z,939.64
2023-11-15T02:20:42.594Z,939.71
2023-11-15T02:20:53.623Z,939.71
2023-11-15T02:21:04.598Z,939.70
2023-11-15T02:21:15.610Z,939.73
2023-11-15T02:21:27.603Z,939.73
2023-11-15T02:21:38.603Z,939.60
2023-11-15T02:21:50.593Z,939.66
2023-11-15T02:22:01.593Z,939.69
2023-11-15T02:22:12.579Z,939.73
2023-11-15T02:22:23.604Z,939.72
2023-11-15T02:22:34.598Z,939.68
2023-11-15T02:22:45.612Z,939.71